Terminal Aerodrome Forecast
Issued by NWS

Current Version | Previous Version | Graphics & Text | Print | Product List | Glossary On
Versions: 1 2 3 4 5 6 7 8 9 10 11 12 13 14 15
000
FTUS41 KILN 081700 RRA
TAFLCK
TAF
KLCK 081741Z 0818/0918 24012G22KT P6SM BKN035
     FM090000 27008KT P6SM BKN040
     FM090600 28005KT P6SM SCT040
      TEMPO 0909/0912 4SM BR
     FM091500 26012KT P6SM BKN040=

USA.gov is the U.S. government's official web portal to all federal, state and local government web resources and services.